createdAt,value
2022-12-08T00:02:01.454Z,101263.72
2022-12-08T00:04:27.943Z,101267.16
2022-12-08T00:07:12.958Z,101247.97
2022-12-08T00:09:41.749Z,101242.75
2022-12-08T00:12:09.163Z,101247.97
2022-12-08T00:14:38.591Z,101238.47
2022-12-08T00:17:06.545Z,101240.16
2022-12-08T00:19:33.790Z,101233.84
2022-12-08T00:22:00.344Z,101240.78
2022-12-08T00:24:32.070Z,101236.22
2022-12-08T00:26:58.563Z,101236.13
2022-12-08T00:29:24.975Z,101235.06
2022-12-08T00:31:51.429Z,101231.63
2022-12-08T00:34:18.113Z,101223.81
2022-12-08T00:36:44.556Z,101225.66
2022-12-08T00:39:12.310Z,101219.59
2022-12-08T00:41:57.002Z,101213.50
2022-12-08T00:44:23.478Z,101216.19
2022-12-08T00:46:49.881Z,101204.09
2022-12-08T00:49:17.300Z,101191.16
2022-12-08T00:51:43.995Z,101194.72
2022-12-08T00:54:11.045Z,101195.84
2022-12-08T00:56:37.965Z,101195.13
2022-12-08T00:59:06.997Z,101189.09
2022-12-08T01:01:33.994Z,101189.09
2022-12-08T01:04:09.001Z,101184.97
2022-12-08T01:06:36.138Z,101186.78
2022-12-08T01:09:05.331Z,101176.31
2022-12-08T01:11:32.724Z,101175.59
2022-12-08T01:13:59.366Z,101179.16
2022-12-08T01:16:29.343Z,101171.41
2022-12-08T01:18:57.465Z,101177.28
2022-12-08T01:21:23.893Z,101182.19
2022-12-08T01:23:50.396Z,101181.13
2022-12-08T01:26:18.609Z,101181.88
2022-12-08T01:28:45.997Z,101179.19
2022-12-08T01:31:14.328Z,101174.81
2022-12-08T01:33:40.974Z,101167.91
2022-12-08T01:36:08.494Z,101169.59
2022-12-08T01:38:34.826Z,101171.44
2022-12-08T01:41:01.437Z,101176.66
2022-12-08T01:43:50.854Z,101180.84
2022-12-08T01:46:17.387Z,101185.22
2022-12-08T01:48:43.862Z,101179.97
2022-12-08T01:51:10.431Z,101176.47
2022-12-08T01:53:36.980Z,101177.41
2022-12-08T01:56:09.125Z,101167.91
2022-12-08T01:58:39.865Z,101159.34
2022-12-08T02:01:06.433Z,101176.84
2022-12-08T02:04:00.270Z,101175.22
2022-12-08T02:06:33.024Z,101161.50
2022-12-08T02:09:01.418Z,101171.94
2022-12-08T02:11:27.810Z,101159.78
2022-12-08T02:16:57.443Z,101151.22
2022-12-08T02:19:51.661Z,101143.59
2022-12-08T02:22:30.221Z,101139.28
2022-12-08T02:25:13.370Z,101141.97
2022-12-08T02:27:50.561Z,101128.88
2022-12-08T02:30:24.657Z,101136.69
2022-12-08T02:33:18.432Z,101124.56
2022-12-08T02:36:02.530Z,101119.41
2022-12-08T02:38:40.918Z,101117.66
2022-12-08T02:41:29.197Z,101129.63
2022-12-08T02:44:06.317Z,101124.22
2022-12-08T02:46:40.302Z,101114.59
2022-12-08T02:49:07.569Z,101113.81
2022-12-08T02:51:33.870Z,101109.53
2022-12-08T02:54:02.100Z,101107.66
2022-12-08T02:56:38.212Z,101107.50
2022-12-08T02:59:17.412Z,101093.56
2022-12-08T03:01:49.651Z,101090.84
2022-12-08T03:04:57.390Z,101090.81
2022-12-08T03:07:32.908Z,101087.41
2022-12-08T03:10:12.222Z,101086.47
2022-12-08T03:12:48.741Z,101082.97
2022-12-08T03:15:18.441Z,101083.63
2022-12-08T03:17:53.751Z,101087.84
2022-12-08T03:20:23.239Z,101084.16
2022-12-08T03:22:52.695Z,101071.84
2022-12-08T03:25:22.650Z,101075.25
2022-12-08T03:27:50.877Z,101081.13
2022-12-08T03:30:17.840Z,101083.63
2022-12-08T03:33:03.588Z,101078.41
2022-12-08T03:35:33.109Z,101081.03
2022-12-08T03:38:08.890Z,101071.53
2022-12-08T03:40:35.507Z,101068.19
2022-12-08T03:43:01.938Z,101069.84
2022-12-08T03:45:28.431Z,101053.47
2022-12-08T03:47:54.826Z,101050.84
2022-12-08T03:50:21.266Z,101048.38
2022-12-08T03:52:47.621Z,101052.84
2022-12-08T03:55:14.478Z,101040.91
2022-12-08T03:57:40.805Z,101042.75
2022-12-08T04:00:09.085Z,101040.25
2022-12-08T04:02:35.484Z,101032.50
2022-12-08T04:05:01.840Z,101044.13
2022-12-08T04:07:28.213Z,101041.75
2022-12-08T04:09:54.593Z,101044.44
2022-12-08T04:12:20.934Z,101046.31
2022-12-08T04:14:47.330Z,101036.84
2022-12-08T04:17:13.689Z,101039.56
2022-12-08T04:19:40.929Z,101036.13
2022-12-08T04:22:07.910Z,101036.13
2022-12-08T04:24:34.455Z,101039.75
2022-12-08T04:27:00.851Z,101024.16
2022-12-08T04:29:27.216Z,101018.19
2022-12-08T04:31:53.562Z,101021.63
2022-12-08T04:34:19.891Z,101022.47
2022-12-08T04:36:46.268Z,101023.41
2022-12-08T04:39:12.609Z,101025.09
2022-12-08T04:41:38.922Z,101021.56
2022-12-08T04:44:05.247Z,101013.72
2022-12-08T04:46:31.639Z,101014.50
2022-12-08T04:48:58.073Z,101018.78
2022-12-08T04:51:24.402Z,101022.16
2022-12-08T04:53:50.888Z,101019.53
2022-12-08T04:56:18.822Z,101023.69
2022-12-08T04:58:45.623Z,101022.66
2022-12-08T05:01:12.741Z,101012.16
2022-12-08T05:03:39.273Z,101018.13
2022-12-08T05:06:06.255Z,101014.69
2022-12-08T05:08:33.138Z,101008.59
2022-12-08T05:11:08.019Z,101011.22
2022-12-08T05:13:34.457Z,101011.22
2022-12-08T05:16:09.663Z,101008.59
2022-12-08T05:18:37.485Z,101012.16
2022-12-08T05:21:04.199Z,101010.47
2022-12-08T05:23:31.142Z,101014.00
2022-12-08T05:25:57.615Z,101015.88
2022-12-08T05:31:15.302Z,101015.16
2022-12-08T05:33:42.446Z,101009.13
2022-12-08T05:36:10.308Z,101011.81
2022-12-08T05:38:36.799Z,101016.19
2022-12-08T05:41:03.539Z,101009.31
2022-12-08T05:43:29.903Z,101004.94
2022-12-08T05:45:56.333Z,100999.88
2022-12-08T05:48:22.687Z,100999.03
2022-12-08T05:50:50.084Z,101004.22
2022-12-08T05:53:17.654Z,100994.00
2022-12-08T05:55:44.727Z,100994.13
2022-12-08T05:58:16.810Z,100996.84
2022-12-08T06:00:43.475Z,101001.22
2022-12-08T06:03:13.912Z,101001.22
2022-12-08T06:05:42.258Z,100994.31
2022-12-08T06:08:09.069Z,100997.84
2022-12-08T06:10:35.566Z,100996.16
2022-12-08T06:13:01.898Z,100989.25
2022-12-08T06:15:28.266Z,100992.78
2022-12-08T06:17:54.611Z,100991.13
2022-12-08T06:20:21.015Z,100992.97
2022-12-08T06:22:47.361Z,100991.28
2022-12-08T06:25:13.702Z,100987.91
2022-12-08T06:27:40.058Z,100983.63
2022-12-08T06:30:07.294Z,100988.91
2022-12-08T06:32:33.858Z,100981.19
2022-12-08T06:35:00.272Z,100989.00
2022-12-08T06:37:26.646Z,100990.78
2022-12-08T06:39:52.984Z,100986.47
2022-12-08T06:42:37.918Z,100998.66
2022-12-08T06:45:04.707Z,100997.91
2022-12-08T06:47:31.088Z,101006.63
2022-12-08T06:49:57.489Z,100998.00
2022-12-08T06:52:23.855Z,100999.91
2022-12-08T06:54:50.343Z,100998.22
2022-12-08T06:57:18.387Z,101000.16
2022-12-08T06:59:44.869Z,100999.47
2022-12-08T07:02:11.623Z,101000.47
2022-12-08T07:04:38.052Z,100996.16
2022-12-08T07:07:04.457Z,100991.03
2022-12-08T07:09:30.851Z,100985.00
2022-12-08T07:11:57.206Z,100994.56
2022-12-08T07:14:24.775Z,100996.44
2022-12-08T07:16:52.043Z,100996.56
2022-12-08T07:19:18.647Z,100998.34
2022-12-08T07:21:45.035Z,101003.72
2022-12-08T07:24:11.614Z,100995.22
2022-12-08T07:26:38.053Z,100991.84
2022-12-08T07:29:04.460Z,100997.19
2022-12-08T07:31:31.037Z,100987.72
2022-12-08T07:33:57.693Z,100993.84
2022-12-08T07:36:24.665Z,100994.94
2022-12-08T07:38:53.198Z,101001.03
2022-12-08T07:41:23.830Z,100994.16
2022-12-08T07:43:50.770Z,100998.63
2022-12-08T07:46:19.843Z,100995.16
2022-12-08T07:48:47.145Z,101000.38
2022-12-08T07:51:16.181Z,101003.06
2022-12-08T07:53:47.190Z,100996.16
2022-12-08T07:56:17.027Z,100988.44
2022-12-08T07:58:45.824Z,100998.00
2022-12-08T08:01:38.660Z,101008.50
2022-12-08T08:04:05.552Z,100996.31
2022-12-08T08:06:32.968Z,100999.84
2022-12-08T08:08:59.729Z,100999.00
2022-12-08T08:11:26.271Z,100997.31
2022-12-08T08:13:52.926Z,100994.78
2022-12-08T08:16:20.226Z,100999.97
2022-12-08T08:18:49.044Z,100994.78
2022-12-08T08:21:43.803Z,101007.66
2022-12-08T08:24:02.598Z,101003.19
2022-12-08T08:26:28.979Z,101010.94
2022-12-08T08:28:55.368Z,101011.75
2022-12-08T08:31:26.770Z,101011.00
2022-12-08T08:33:53.798Z,101007.47
2022-12-08T08:36:21.949Z,101011.75
2022-12-08T08:38:48.290Z,101020.34
2022-12-08T08:41:14.694Z,101011.63
2022-12-08T08:43:41.025Z,101018.50
2022-12-08T08:46:08.917Z,101026.19
2022-12-08T08:48:35.653Z,101020.97
2022-12-08T08:51:10.926Z,101018.19
2022-12-08T08:53:37.501Z,101023.41
2022-12-08T08:56:08.374Z,101029.31
2022-12-08T08:58:34.714Z,101030.16
2022-12-08T09:01:01.016Z,101025.84
2022-12-08T09:03:27.415Z,101022.34
2022-12-08T09:05:56.027Z,101021.41
2022-12-08T09:08:23.604Z,101015.28
2022-12-08T09:10:50.052Z,101016.03
2022-12-08T09:13:16.558Z,101017.72
2022-12-08T09:15:43.037Z,101010.69
2022-12-08T09:18:10.778Z,101012.19
2022-12-08T09:20:37.229Z,101010.06
2022-12-08T09:23:03.660Z,101015.31
2022-12-08T09:25:30.066Z,101008.34
2022-12-08T09:27:56.466Z,101013.56
2022-12-08T09:30:23.007Z,101008.28
2022-12-08T09:32:49.379Z,101003.00
2022-12-08T09:35:15.924Z,101005.50
2022-12-08T09:37:42.302Z,101002.81
2022-12-08T09:40:15.280Z,101004.50
2022-12-08T09:42:52.016Z,101000.81
2022-12-08T09:45:19.490Z,100994.59
2022-12-08T09:47:57.846Z,101006.63
2022-12-08T09:50:46.472Z,101010.75
2022-12-08T09:53:18.525Z,101015.81
2022-12-08T09:55:51.769Z,101016.75
2022-12-08T09:58:45.213Z,101011.34
2022-12-08T10:01:12.145Z,101019.03
2022-12-08T10:03:38.556Z,101017.16
2022-12-08T10:06:21.922Z,101015.50
2022-12-08T10:09:25.134Z,101014.47
2022-12-08T10:12:00.012Z,101003.41
2022-12-08T10:14:47.044Z,101009.16
2022-12-08T10:17:19.990Z,101008.28
2022-12-08T10:19:48.189Z,101009.78
2022-12-08T10:22:23.043Z,101004.56
2022-12-08T10:25:05.105Z,101007.09
2022-12-08T10:27:35.742Z,101002.56
2022-12-08T10:30:02.972Z,101004.84
2022-12-08T10:32:34.941Z,100999.63
2022-12-08T10:35:06.451Z,100997.03
2022-12-08T10:37:33.734Z,100996.84
2022-12-08T10:40:06.389Z,100996.84
2022-12-08T10:42:37.226Z,100989.09
2022-12-08T10:45:09.842Z,100986.50
2022-12-08T10:47:42.507Z,100986.41
2022-12-08T10:50:23.429Z,100983.06
2022-12-08T10:53:12.709Z,100987.44
2022-12-08T10:55:40.834Z,100989.09
2022-12-08T10:58:27.125Z,100990.88
2022-12-08T11:01:12.342Z,100979.84
2022-12-08T11:04:03.214Z,100985.16
2022-12-08T11:06:35.691Z,100985.84
2022-12-08T11:09:37.645Z,100983.38
2022-12-08T11:12:13.471Z,100988.78
2022-12-08T11:14:42.552Z,100986.41
2022-12-08T11:17:13.142Z,100989.09
2022-12-08T11:19:42.158Z,100998.69
2022-12-08T11:22:30.091Z,100982.38
2022-12-08T11:25:05.322Z,100984.22
2022-12-08T11:27:34.096Z,100976.41
2022-12-08T11:30:06.066Z,100972.97
2022-12-08T11:32:34.585Z,100968.00
2022-12-08T11:35:04.564Z,100962.19
2022-12-08T11:37:49.017Z,100954.78
2022-12-08T11:40:23.108Z,100952.59
2022-12-08T11:43:16.680Z,100940.81
2022-12-08T11:45:43.717Z,100940.66
2022-12-08T11:48:34.974Z,100941.00
2022-12-08T11:51:09.110Z,100928.06
2022-12-08T11:53:43.837Z,100936.78
2022-12-08T11:56:24.914Z,100929.56
2022-12-08T11:58:57.749Z,100924.22
2022-12-08T12:01:25.681Z,100925.91
2022-12-08T12:04:00.445Z,100924.22
2022-12-08T12:07:08.415Z,100917.91
2022-12-08T12:09:46.814Z,100917.56
2022-12-08T12:12:39.405Z,100918.16
2022-12-08T12:15:28.337Z,100917.81
2022-12-08T12:18:14.947Z,100918.16
2022-12-08T12:21:10.689Z,100913.63
2022-12-08T12:23:45.596Z,100913.78
2022-12-08T12:26:22.232Z,100908.66
2022-12-08T12:29:02.470Z,100908.75
2022-12-08T12:31:36.574Z,100895.00
2022-12-08T12:34:19.898Z,100903.69
2022-12-08T12:36:58.673Z,100900.97
2022-12-08T12:39:31.433Z,100901.06
2022-12-08T12:42:01.403Z,100891.34
2022-12-08T12:44:27.690Z,100890.16
2022-12-08T12:47:00.483Z,100890.19
2022-12-08T12:49:38.869Z,100886.28
2022-12-08T12:52:23.584Z,100893.00
2022-12-08T12:54:49.896Z,100882.19
2022-12-08T12:57:23.212Z,100876.00
2022-12-08T12:59:55.596Z,100884.53
2022-12-08T13:02:36.709Z,100888.31
2022-12-08T13:05:19.632Z,100883.25
2022-12-08T13:08:00.714Z,100879.28
2022-12-08T13:10:33.555Z,100876.34
2022-12-08T13:13:05.976Z,100883.72
2022-12-08T13:15:36.280Z,100887.50
2022-12-08T13:18:03.071Z,100888.66
2022-12-08T13:20:29.585Z,100884.75
2022-12-08T13:23:33.223Z,100884.69
2022-12-08T13:26:25.578Z,100879.38
2022-12-08T13:29:04.080Z,100885.19
2022-12-08T13:31:51.345Z,100890.50
2022-12-08T13:34:27.153Z,100886.38
2022-12-08T13:37:15.885Z,100874.72
2022-12-08T13:39:49.562Z,100873.88
2022-12-08T13:42:19.594Z,100871.97
2022-12-08T13:45:39.745Z,100870.91
2022-12-08T13:49:03.352Z,100873.28
2022-12-08T13:55:00.706Z,100882.69
2022-12-08T13:57:10.041Z,100875.06
2022-12-08T13:59:44.167Z,100870.25
2022-12-08T14:02:26.190Z,100869.38
2022-12-08T14:07:41.024Z,100887.53
2022-12-08T14:10:19.728Z,100885.69
2022-12-08T14:12:51.853Z,100889.13
2022-12-08T14:15:19.385Z,100891.75
2022-12-08T14:17:54.223Z,100887.03
2022-12-08T14:20:25.169Z,100882.16
2022-12-08T14:22:52.759Z,100880.81
2022-12-08T14:25:20.921Z,100891.59
2022-12-08T14:27:48.466Z,100884.88
2022-12-08T14:30:26.033Z,100891.94
2022-12-08T14:33:01.077Z,100883.22
2022-12-08T14:35:38.989Z,100886.56
2022-12-08T14:38:13.967Z,100895.66
2022-12-08T14:41:01.623Z,100884.63
2022-12-08T14:43:29.961Z,100889.94
2022-12-08T14:46:02.314Z,100889.19
2022-12-08T14:48:31.539Z,100896.91
2022-12-08T14:51:03.935Z,100887.47
2022-12-08T14:53:37.309Z,100879.94
2022-12-08T14:56:28.736Z,100884.66
2022-12-08T14:59:04.192Z,100886.75
2022-12-08T15:01:30.896Z,100881.84
2022-12-08T15:04:13.192Z,100881.25
2022-12-08T15:06:52.627Z,100878.75
2022-12-08T15:09:38.931Z,100877.13
2022-12-08T15:12:12.193Z,100873.78
2022-12-08T15:14:42.489Z,100878.16
2022-12-08T15:17:27.134Z,100873.78
2022-12-08T15:19:58.236Z,100878.84
2022-12-08T15:22:26.557Z,100877.13
2022-12-08T15:24:54.208Z,100874.47
2022-12-08T15:27:23.145Z,100869.25
2022-12-08T15:29:50.051Z,100868.41
2022-12-08T15:32:23.744Z,100864.94
2022-12-08T15:34:50.496Z,100868.34
2022-12-08T15:37:26.267Z,100865.63
2022-12-08T15:39:52.988Z,100869.78
2022-12-08T15:42:19.703Z,100871.25
2022-12-08T15:44:46.274Z,100879.66
2022-12-08T15:47:23.987Z,100880.38
2022-12-08T15:49:52.831Z,100882.69
2022-12-08T15:52:24.850Z,100880.88
2022-12-08T15:54:51.359Z,100887.56
2022-12-08T15:57:44.118Z,100882.22
2022-12-08T16:00:50.362Z,100886.50
2022-12-08T16:03:51.649Z,100884.63
2022-12-08T16:06:57.515Z,100877.00
2022-12-08T16:09:11.254Z,100877.34
2022-12-08T16:12:06.458Z,100883.03
2022-12-08T16:15:46.769Z,100881.09
2022-12-08T16:17:21.243Z,100885.13
2022-12-08T16:19:47.617Z,100883.84
2022-12-08T16:25:21.504Z,100879.28
2022-12-08T16:28:03.113Z,100878.78
2022-12-08T16:30:35.194Z,100872.03
2022-12-08T16:33:01.582Z,100865.47
2022-12-08T16:35:27.992Z,100867.47
2022-12-08T16:37:54.417Z,100863.59
2022-12-08T16:40:20.970Z,100863.06
2022-12-08T16:42:49.762Z,100867.81
2022-12-08T16:45:18.725Z,100867.03
2022-12-08T16:47:47.730Z,100863.56
2022-12-08T16:50:26.750Z,100866.06
2022-12-08T16:52:59.043Z,100860.88
2022-12-08T16:55:25.805Z,100860.69
2022-12-08T16:57:52.409Z,100870.88
2022-12-08T17:00:22.000Z,100869.81
2022-12-08T17:02:49.403Z,100869.47
2022-12-08T17:05:18.833Z,100872.00
2022-12-08T17:07:47.407Z,100875.44
2022-12-08T17:10:16.614Z,100878.78
2022-12-08T17:12:43.257Z,100873.50
2022-12-08T17:15:14.957Z,100876.09
2022-12-08T17:17:41.545Z,100871.16
2022-12-08T17:20:16.182Z,100872.41
2022-12-08T17:22:42.883Z,100868.28
2022-12-08T17:25:09.381Z,100872.00
2022-12-08T17:27:36.160Z,100862.94
2022-12-08T17:30:02.697Z,100872.09
2022-12-08T17:32:29.304Z,100859.50
2022-12-08T17:34:55.690Z,100857.38
2022-12-08T17:37:22.062Z,100849.03
2022-12-08T17:39:48.421Z,100859.09
2022-12-08T17:42:14.750Z,100864.59
2022-12-08T17:44:41.150Z,100866.28
2022-12-08T17:47:07.510Z,100870.84
2022-12-08T17:49:33.996Z,100867.66
2022-12-08T17:52:02.901Z,100864.75
2022-12-08T17:54:29.623Z,100857.56
2022-12-08T17:56:58.528Z,100864.47
2022-12-08T17:59:26.027Z,100862.31
2022-12-08T18:01:53.771Z,100863.50
2022-12-08T18:04:20.825Z,100856.22
2022-12-08T18:06:47.178Z,100863.94
2022-12-08T18:09:15.059Z,100861.41
2022-12-08T18:11:42.161Z,100861.03
2022-12-08T18:14:09.987Z,100867.22
2022-12-08T18:16:42.433Z,100856.34
2022-12-08T18:19:09.720Z,100861.25
2022-12-08T18:21:36.669Z,100867.41
2022-12-08T18:24:03.503Z,100863.06
2022-12-08T18:26:30.649Z,100861.25
2022-12-08T18:28:57.645Z,100855.88
2022-12-08T18:31:24.470Z,100858.25
2022-12-08T18:33:51.726Z,100858.88
2022-12-08T18:36:24.462Z,100853.75
2022-12-08T18:38:52.281Z,100852.38
2022-12-08T18:41:23.289Z,100849.94
2022-12-08T18:43:49.746Z,100852.81
2022-12-08T18:46:16.182Z,100856.75
2022-12-08T18:48:45.795Z,100874.47
2022-12-08T18:51:14.469Z,100874.16
2022-12-08T18:53:41.342Z,100871.44
2022-12-08T18:56:08.551Z,100874.53
2022-12-08T18:58:35.211Z,100878.28
2022-12-08T19:01:01.645Z,100876.63
2022-12-08T19:03:28.045Z,100873.09
2022-12-08T19:06:05.201Z,100881.41
2022-12-08T19:08:31.922Z,100877.63
2022-12-08T19:10:58.919Z,100879.97
2022-12-08T19:13:25.754Z,100880.78
2022-12-08T19:15:52.178Z,100876.00
2022-12-08T19:18:18.563Z,100881.56
2022-12-08T19:20:44.985Z,100885.56
2022-12-08T19:23:15.401Z,100893.97
2022-12-08T19:25:41.932Z,100887.78
2022-12-08T19:28:08.305Z,100880.69
2022-12-08T19:30:34.656Z,100885.72
2022-12-08T19:33:01.080Z,100887.25
2022-12-08T19:35:27.438Z,100881.03
2022-12-08T19:37:55.001Z,100882.50
2022-12-08T19:40:40.026Z,100882.38
2022-12-08T19:43:33.931Z,100887.41
2022-12-08T19:46:00.438Z,100886.47
2022-12-08T19:48:26.891Z,100892.38
2022-12-08T19:50:53.410Z,100891.53
2022-12-08T19:53:20.755Z,100894.06
2022-12-08T19:55:47.883Z,100884.50
2022-12-08T19:58:14.294Z,100886.09
2022-12-08T20:00:41.882Z,100890.41
2022-12-08T20:03:10.193Z,100885.19
2022-12-08T20:05:37.223Z,100901.47
2022-12-08T20:08:04.048Z,100901.31
2022-12-08T20:10:34.287Z,100901.25
2022-12-08T20:13:19.589Z,100899.31
2022-12-08T20:15:46.671Z,100901.00
2022-12-08T20:18:14.868Z,100898.41
2022-12-08T20:20:43.052Z,100900.09
2022-12-08T20:23:09.792Z,100900.84
2022-12-08T20:25:41.138Z,100900.84
2022-12-08T20:28:08.140Z,100902.53
2022-12-08T20:30:37.502Z,100896.47
2022-12-08T20:33:04.060Z,100897.31
2022-12-08T20:35:30.478Z,100906.03
2022-12-08T20:37:56.825Z,100899.84
2022-12-08T20:40:24.515Z,100900.53
2022-12-08T20:42:50.853Z,100900.38
2022-12-08T20:45:17.407Z,100909.09
2022-12-08T20:47:43.820Z,100903.06
2022-12-08T20:50:10.866Z,100912.47
2022-12-08T20:52:37.934Z,100903.88
2022-12-08T20:55:05.867Z,100908.16
2022-12-08T20:57:33.235Z,100908.25
2022-12-08T21:00:00.039Z,100906.56
2022-12-08T21:02:27.487Z,100914.28
2022-12-08T21:04:54.426Z,100912.63
2022-12-08T21:07:21.031Z,100907.28
2022-12-08T21:09:47.494Z,100905.56
2022-12-08T21:12:14.311Z,100912.47
2022-12-08T21:14:40.974Z,100910.78
2022-12-08T21:17:08.247Z,100917.69
2022-12-08T21:19:34.820Z,100914.28
2022-12-08T21:22:01.534Z,100919.66
2022-12-08T21:24:33.693Z,100921.34
2022-12-08T21:27:00.815Z,100914.28
2022-12-08T21:29:27.416Z,100917.81
2022-12-08T21:31:56.199Z,100910.94
2022-12-08T21:34:23.360Z,100922.19
2022-12-08T21:36:49.857Z,100924.69
2022-12-08T21:39:16.386Z,100923.03
2022-12-08T21:42:01.283Z,100911.88
2022-12-08T21:44:27.797Z,100913.47
2022-12-08T21:46:54.272Z,100909.09
2022-12-08T21:49:20.847Z,100919.34
2022-12-08T21:51:47.497Z,100922.72
2022-12-08T21:54:18.675Z,100921.03
2022-12-08T21:56:47.267Z,100915.84
2022-12-08T21:59:13.867Z,100916.81
2022-12-08T22:01:40.512Z,100933.28
2022-12-08T22:04:07.411Z,100919.34
2022-12-08T22:06:33.925Z,100928.09
2022-12-08T22:09:00.688Z,100933.44
2022-12-08T22:11:27.341Z,100930.75
2022-12-08T22:13:53.884Z,100925.63
2022-12-08T22:16:20.360Z,100932.41
2022-12-08T22:18:47.080Z,100931.75
2022-12-08T22:21:16.359Z,100931.88
2022-12-08T22:23:43.729Z,100935.28
2022-12-08T22:26:11.106Z,100937.78
2022-12-08T22:28:40.215Z,100933.19
2022-12-08T22:31:19.326Z,100941.84
2022-12-08T22:33:45.658Z,100938.50
2022-12-08T22:36:30.464Z,100936.03
2022-12-08T22:38:57.089Z,100928.22
2022-12-08T22:41:24.064Z,100932.41
2022-12-08T22:43:50.809Z,100924.69
2022-12-08T22:46:27.321Z,100923.88
2022-12-08T22:48:54.738Z,100919.66
2022-12-08T22:51:21.453Z,100913.94
2022-12-08T22:53:48.290Z,100915.09
2022-12-08T22:56:16.008Z,100917.06
2022-12-08T22:58:44.093Z,100917.38
2022-12-08T23:01:31.392Z,100911.63
2022-12-08T23:03:59.021Z,100907.56
2022-12-08T23:06:26.977Z,100914.91
2022-12-08T23:08:54.336Z,100913.41
2022-12-08T23:11:22.919Z,100907.59
2022-12-08T23:13:49.523Z,100912.00
2022-12-08T23:16:16.173Z,100914.59
2022-12-08T23:18:44.967Z,100922.09
2022-12-08T23:21:14.292Z,100917.44
2022-12-08T23:23:41.094Z,100914.78
2022-12-08T23:26:34.854Z,100920.00
2022-12-08T23:29:01.739Z,100914.78
2022-12-08T23:31:28.299Z,100914.53
2022-12-08T23:33:55.161Z,100917.00
2022-12-08T23:36:23.099Z,100913.41
2022-12-08T23:38:49.594Z,100904.97
2022-12-08T23:41:16.126Z,100913.56
2022-12-08T23:43:50.826Z,100912.56
2022-12-08T23:46:19.657Z,100915.69
2022-12-08T23:48:46.431Z,100904.28
2022-12-08T23:51:13.358Z,100911.25
2022-12-08T23:53:40.282Z,100910.41
2022-12-08T23:56:10.168Z,100904.38
2022-12-08T23:58:36.757Z,100901.69
